AirNav   Pilot Hours Calculator
 
 275 users online  

GE12 Richter Airpark
Ashburn, Georgia, USA

GOING TO ASHBURN?


FAA INFORMATION EFFECTIVE 07 NOVEMBER 2019

Location

FAA Identifier: GE12
Lat/Long: 31-44-55.0000N 083-34-25.0000W
31-44.916667N 083-34.416667W
31.7486111,-83.5736111
(estimated)
Elevation: 357 ft. / 109 m (estimated)
From city: 6 miles NE of ASHBURN, GA
Time zone: UTC -5 (UTC -4 during Daylight Saving Time)
Zip code: 31714

Airport Operations

Airport use: Private use. Permission required prior to landing
Activation date: 02/2004
Control tower: no
ARTCC: JACKSONVILLE CENTER
FSS: MACON FLIGHT SERVICE STATION
Attendance: UNATNDD
Wind indicator: yes
Segmented circle: no

Airport Communications

UNICOM: 122.95
WX AWOS-3 at FZG (16 nm E): 118.625 (229-426-5072)
WX AWOS-3PT at CKF (18 nm NW): 119.325 (229-276-2669)
WX AWOS-3PT at TMA (20 nm S): 118.525 (229-386-8937)

Nearby radio navigation aids

VOR radial/distance  VOR name  Freq  Var
IFMr348/(19.7)TIFT MYERS VOR112.5001W
VNAr187/28.2VIENNA VORTAC116.5001E
PZDr083/37.2PECAN VOR/DME116.1002W

 
NDB name  Hdg/Dist  Freq  Var  ID
FITZGERALD304/16.636205WSUR ... ..- .-.
CONEY142/21.040006WOHY --- .... -.--
EASTMAN227/31.436604WEZM . --.. --
LINDBERGH137/37.324204WLKG .-.. -.- --.
COFFEE COUNTY308/39.139006WOWC --- .-- -.-.

Airport Services

Airframe service: MINOR
Powerplant service: MINOR

Runway Information

Runway 10/28

Dimensions: 4693 x 100 ft. / 1430 x 30 m
Surface: turf
RUNWAY 10  RUNWAY 28
Traffic pattern: leftleft
Obstructions: treestrees

Airport Ownership and Management from official FAA records

Ownership: Privately-owned
Owner: ERIC RICHTER
171 FREEMAN ROAD
REBECCA, GA 31783
Phone (229) 425-1791
Manager: ERIC RICHTER
171 FREEMAN ROAD
REBECCA, GA 31783
Phone (229) 425-1791

Airport Operational Statistics

Aircraft based on the field: 2
Single engine airplanes: 2
    

Additional Remarks

FIRST 3000 FT OF RY 28 IS LIGHTED.
AIRFRAME AND POWERPLANT REPAIRS, ANNUALS, 100 HRS.
FOR CD CTC VALDOSTA APCH AT 229-257-2207, WHEN APCH CLSD CTC JACKSONVILLE ARTCC AT 904-845-1592.

Instrument Procedures

There are no published instrument procedures at GE12.

Some nearby airports with instrument procedures:

75J - Turner County Airport (5 nm SW)
KFZG - Fitzgerald Municipal Airport (16 nm E)
KCKF - Crisp County-Cordele Airport (18 nm NW)
KTMA - Henry Tift Myers Airport (20 nm S)
KABY - Southwest Georgia Regional Airport (34 nm W)
 
Loc | Ops | Rwys | IFR | FBO | Links
Com | Nav | Svcs | Stats | Notes
Area around GE12 (Richter Airpark)
 
Road maps at: MapQuest Bing Google
 
Aerial photo
WARNING: Photo may not be current or correct
Aerial photo of GE12 (Richter Airpark)
Picture by Greg Walls

Do you have a better or more recent aerial photo of Richter Airpark that you would like to share? If so, please send us your photo.

 
Sectional chart

 
Airport distance calculator
Flying to Richter Airpark? Find the distance to fly.

From to GE12

Sunrise and sunset
Times for 13-Nov-2019
 Local
(UTC-5)
 Zulu
(UTC)
Morning civil twilight06:3611:36
Sunrise07:0212:02
Sunset17:3522:35
Evening civil twilight18:0123:01

Current date and time
Zulu (UTC)  13-Nov-2019 09:19:33
Local (UTC-5)  13-Nov-2019 04:19:33
 
METAR
KFZG 
16nm E 
130855Z AUTO 02006KT 10SM OVC023 03/M01 A3024 RMK AO2 T00301010 PWINO
KCKF 
18nm NW 
130855Z AUTO 03008KT 10SM 00/M05 A3026 RMK AO2 T10051047
KTMA 
20nm S 
130855Z AUTO 02005KT 10SM OVC025 02/M02 A3020 RMK AO2 T00211021
TAF
KABY 
35nm W 
130521Z 1306/1406 36010KT P6SM SCT030 FM131400 06010KT P6SM SKC FM140000 05004KT P6SM SKC
NOTAMs
Click for the latest NOTAMs
NOTAMs are issued by the DoD/FAA and will open in a separate window not controlled by AirNav.

 

 
 

Would you like to see your business listed on this page?

 If your business provides an interesting product or service to pilots, flight crews, aircraft, or users of the Richter Airpark, you should consider listing it here.  To start the listing process, click on the button below
 
Add a business
 

Other Pages about Richter Airpark

Update a link
 
Copyright © AirNav, LLC. All rights reserved. Privacy Policy  Contact